createdAt,value
2022-09-05T00:00:27.633Z,16.72
2022-09-05T00:03:07.708Z,16.73
2022-09-05T00:06:02.778Z,16.71
2022-09-05T00:08:45.121Z,16.73
2022-09-05T00:11:41.202Z,16.71
2022-09-05T00:15:16.054Z,16.66
2022-09-05T00:18:00.191Z,16.65
2022-09-05T00:24:19.253Z,16.70
2022-09-05T00:24:27.840Z,16.71
2022-09-05T00:26:50.164Z,16.71
2022-09-05T00:31:06.131Z,16.70
2022-09-05T00:32:36.514Z,16.63
2022-09-05T00:35:20.608Z,16.53
2022-09-05T00:37:55.330Z,16.48
2022-09-05T00:40:33.594Z,16.47
2022-09-05T00:43:07.352Z,16.47
2022-09-05T00:45:43.718Z,16.40
2022-09-05T00:48:33.438Z,16.34
2022-09-05T00:51:18.268Z,16.28
2022-09-05T00:54:01.145Z,16.25
2022-09-05T00:56:47.862Z,16.19
2022-09-05T00:59:59.097Z,16.16
2022-09-05T01:02:51.699Z,16.13
2022-09-05T01:05:40.199Z,16.10
2022-09-05T01:08:24.614Z,16.05
2022-09-05T01:11:03.725Z,16.00
2022-09-05T01:13:41.948Z,15.97
2022-09-05T01:16:23.554Z,15.99
2022-09-05T01:19:07.061Z,15.97
2022-09-05T01:22:09.522Z,15.95
2022-09-05T01:25:05.455Z,15.92
2022-09-05T01:28:37.021Z,15.87
2022-09-05T01:30:59.391Z,15.88
2022-09-05T01:33:43.397Z,15.85
2022-09-05T01:36:27.930Z,15.79
2022-09-05T01:40:10.526Z,15.75
2022-09-05T01:42:00.982Z,15.70
2022-09-05T01:47:40.225Z,15.65
2022-09-05T01:50:28.887Z,15.57
2022-09-05T01:53:13.512Z,15.55
2022-09-05T01:56:18.104Z,15.52
2022-09-05T01:58:59.331Z,15.48
2022-09-05T02:01:37.309Z,15.46
2022-09-05T02:04:31.741Z,15.37
2022-09-05T02:07:15.210Z,15.34
2022-09-05T02:10:20.293Z,15.23
2022-09-05T02:12:58.421Z,15.18
2022-09-05T02:15:52.459Z,15.14
2022-09-05T02:18:53.047Z,15.03
2022-09-05T02:21:55.683Z,14.96
2022-09-05T02:24:29.643Z,14.83
2022-09-05T02:27:37.417Z,14.74
2022-09-05T02:30:12.488Z,14.78
2022-09-05T02:32:49.893Z,14.68
2022-09-05T02:35:28.616Z,14.66
2022-09-05T02:41:32.056Z,14.74
2022-09-05T02:45:09.704Z,14.68
2022-09-05T02:45:20.403Z,14.65
2022-09-05T02:47:01.990Z,14.60
2022-09-05T02:52:50.456Z,14.63
2022-09-05T02:57:34.885Z,14.66
2022-09-05T02:57:47.027Z,14.61
2022-09-05T02:59:09.247Z,14.63
2022-09-05T03:02:00.642Z,14.55
2022-09-05T03:04:39.126Z,14.51
2022-09-05T03:07:26.010Z,14.54
2022-09-05T03:10:11.954Z,14.55
2022-09-05T03:13:15.153Z,14.56
2022-09-05T03:16:18.844Z,14.56
2022-09-05T03:19:21.931Z,14.51
2022-09-05T03:22:37.150Z,14.47
2022-09-05T03:25:50.401Z,14.43
2022-09-05T03:29:14.779Z,14.48
2022-09-05T03:32:09.683Z,14.45
2022-09-05T03:35:11.777Z,14.43
2022-09-05T03:38:04.080Z,14.38
2022-09-05T03:40:58.717Z,14.30
2022-09-05T03:44:04.550Z,14.26
2022-09-05T03:47:00.504Z,14.29
2022-09-05T03:54:00.490Z,14.26
2022-09-05T03:57:19.158Z,14.26
2022-09-05T03:57:27.026Z,14.20
2022-09-05T03:59:20.484Z,14.17
2022-09-05T04:03:30.851Z,14.16
2022-09-05T04:08:17.766Z,14.03
2022-09-05T04:08:19.422Z,14.11
2022-09-05T04:10:37.527Z,14.00
2022-09-05T04:13:11.484Z,13.96
2022-09-05T04:15:47.552Z,13.93
2022-09-05T04:18:32.755Z,13.87
2022-09-05T04:21:07.951Z,13.86
2022-09-05T04:23:49.850Z,13.80
2022-09-05T04:26:32.979Z,13.83
2022-09-05T04:29:10.513Z,13.83
2022-09-05T04:32:06.546Z,13.84
2022-09-05T04:35:00.288Z,13.82
2022-09-05T04:37:48.631Z,13.83
2022-09-05T04:40:48.215Z,13.80
2022-09-05T04:43:27.500Z,13.76
2022-09-05T04:46:08.333Z,13.70
2022-09-05T04:48:44.355Z,13.61
2022-09-05T04:51:43.940Z,13.60
2022-09-05T04:54:36.851Z,13.58
2022-09-05T04:57:17.464Z,13.56
2022-09-05T05:02:36.714Z,13.50
2022-09-05T05:06:09.238Z,13.51
2022-09-05T05:06:11.399Z,13.44
2022-09-05T05:08:48.071Z,13.44
2022-09-05T05:17:53.918Z,13.47
2022-09-05T05:18:11.818Z,13.40
2022-09-05T05:18:14.532Z,13.41
2022-09-05T05:20:40.057Z,13.39
2022-09-05T05:23:08.055Z,13.30
2022-09-05T05:25:46.507Z,13.27
2022-09-05T05:28:24.842Z,13.22
2022-09-05T05:31:01.576Z,13.19
2022-09-05T05:33:35.867Z,13.15
2022-09-05T05:36:09.593Z,13.14
2022-09-05T05:38:54.019Z,13.06
2022-09-05T05:41:29.297Z,13.00
2022-09-05T05:43:59.485Z,13.06
2022-09-05T05:46:34.877Z,13.14
2022-09-05T05:49:27.755Z,13.25
2022-09-05T05:52:16.041Z,13.34
2022-09-05T05:54:51.377Z,13.38
2022-09-05T05:58:04.251Z,13.43
2022-09-05T06:00:54.500Z,13.44
2022-09-05T06:04:02.299Z,13.50
2022-09-05T06:06:42.579Z,13.53
2022-09-05T06:14:50.772Z,13.55
2022-09-05T06:14:55.457Z,13.53
2022-09-05T06:16:36.746Z,13.51
2022-09-05T06:20:20.921Z,13.48
2022-09-05T06:22:55.981Z,13.49
2022-09-05T06:25:51.545Z,13.48
2022-09-05T06:28:27.687Z,13.54
2022-09-05T06:31:30.763Z,13.65
2022-09-05T06:34:33.140Z,13.70
2022-09-05T06:37:16.649Z,13.74
2022-09-05T06:40:12.291Z,13.79
2022-09-05T06:43:01.790Z,13.82
2022-09-05T06:45:46.828Z,13.85
2022-09-05T06:48:36.641Z,13.93
2022-09-05T06:51:44.855Z,13.97
2022-09-05T06:54:37.008Z,14.02
2022-09-05T06:57:43.905Z,14.09
2022-09-05T07:00:24.928Z,14.17
2022-09-05T07:03:22.888Z,14.22
2022-09-05T07:05:59.800Z,14.26
2022-09-05T07:08:40.812Z,14.31
2022-09-05T07:11:17.179Z,14.41
2022-09-05T07:13:59.807Z,14.51
2022-09-05T07:16:42.267Z,14.55
2022-09-05T07:19:27.788Z,14.60
2022-09-05T07:22:47.925Z,14.64
2022-09-05T07:25:18.284Z,14.65
2022-09-05T07:28:28.423Z,14.68
2022-09-05T07:30:49.731Z,14.71
2022-09-05T07:33:25.317Z,14.73
2022-09-05T07:36:07.435Z,14.77
2022-09-05T07:38:52.478Z,14.83
2022-09-05T07:41:27.777Z,14.89
2022-09-05T07:44:00.981Z,14.96
2022-09-05T07:46:33.925Z,15.03
2022-09-05T07:49:09.747Z,15.06
2022-09-05T07:56:36.309Z,15.19
2022-09-05T07:56:55.223Z,15.38
2022-09-05T07:57:50.732Z,15.48
2022-09-05T08:00:26.864Z,15.52
2022-09-05T08:03:02.413Z,15.59
2022-09-05T08:05:44.788Z,15.84
2022-09-05T08:08:18.691Z,15.94
2022-09-05T08:11:23.171Z,16.12
2022-09-05T08:14:41.743Z,16.06
2022-09-05T08:16:48.651Z,16.01
2022-09-05T08:19:44.940Z,16.13
2022-09-05T08:22:23.625Z,16.20
2022-09-05T08:25:02.551Z,16.16
2022-09-05T08:27:36.740Z,16.26
2022-09-05T08:30:26.872Z,16.41
2022-09-05T08:33:10.376Z,16.51
2022-09-05T08:35:45.353Z,16.52
2022-09-05T08:38:22.300Z,16.65
2022-09-05T08:41:06.403Z,16.67
2022-09-05T08:46:35.177Z,16.55
2022-09-05T08:46:41.709Z,16.65
2022-09-05T08:49:45.997Z,16.60
2022-09-05T08:52:25.240Z,16.52
2022-09-05T08:55:07.664Z,16.62
2022-09-05T08:58:15.998Z,16.66
2022-09-05T09:00:55.160Z,16.88
2022-09-05T09:03:35.468Z,17.16
2022-09-05T09:07:29.144Z,17.23
2022-09-05T09:10:04.407Z,17.21
2022-09-05T09:13:09.948Z,17.01
2022-09-05T09:15:42.562Z,16.88
2022-09-05T09:18:16.976Z,16.81
2022-09-05T09:20:53.631Z,16.76
2022-09-05T09:23:43.281Z,16.88
2022-09-05T09:26:17.271Z,16.71
2022-09-05T09:28:58.418Z,16.68
2022-09-05T09:31:38.862Z,16.72
2022-09-05T09:34:36.671Z,16.84
2022-09-05T09:37:40.276Z,16.84
2022-09-05T09:41:00.544Z,17.04
2022-09-05T09:44:02.111Z,17.14
2022-09-05T09:46:43.786Z,17.31
2022-09-05T09:49:35.851Z,17.52
2022-09-05T09:52:37.632Z,17.76
2022-09-05T09:55:48.566Z,17.88
2022-09-05T09:58:50.223Z,17.76
2022-09-05T10:01:53.808Z,17.78
2022-09-05T10:10:39.192Z,17.71
2022-09-05T10:10:45.164Z,17.53
2022-09-05T10:14:50.619Z,17.65
2022-09-05T10:17:40.777Z,17.64
2022-09-05T10:20:29.454Z,17.85
2022-09-05T10:23:10.800Z,18.65
2022-09-05T10:26:13.221Z,18.85
2022-09-05T10:28:53.274Z,19.17
2022-09-05T10:35:10.209Z,19.39
2022-09-05T10:35:19.765Z,19.10
2022-09-05T10:37:51.022Z,18.88
2022-09-05T10:40:25.969Z,19.18
2022-09-05T10:43:02.620Z,19.23
2022-09-05T10:45:45.054Z,19.39
2022-09-05T10:48:24.947Z,19.59
2022-09-05T10:51:27.101Z,19.71
2022-09-05T10:54:15.337Z,20.05
2022-09-05T10:56:48.924Z,19.92
2022-09-05T11:02:28.887Z,20.08
2022-09-05T11:02:34.758Z,20.04
2022-09-05T11:05:22.321Z,20.17
2022-09-05T11:08:00.553Z,20.29
2022-09-05T11:10:36.783Z,20.29
2022-09-05T11:13:17.590Z,20.24
2022-09-05T11:16:04.755Z,20.21
2022-09-05T11:19:04.288Z,20.21
2022-09-05T11:22:21.941Z,20.24
2022-09-05T11:24:51.962Z,20.19
2022-09-05T11:27:30.116Z,20.09
2022-09-05T11:30:06.224Z,20.10
2022-09-05T11:39:45.767Z,20.40
2022-09-05T11:40:01.996Z,20.21
2022-09-05T11:40:04.115Z,20.50
2022-09-05T11:42:25.712Z,20.33
2022-09-05T11:45:15.629Z,20.33
2022-09-05T11:48:27.427Z,20.23
2022-09-05T11:51:38.795Z,20.21
2022-09-05T11:54:44.091Z,20.21
2022-09-05T11:57:46.975Z,20.38
2022-09-05T12:00:33.429Z,20.35
2022-09-05T12:03:59.798Z,20.39
2022-09-05T12:06:57.453Z,20.96
2022-09-05T12:09:54.325Z,21.04
2022-09-05T12:12:41.385Z,20.61
2022-09-05T12:15:27.970Z,20.36
2022-09-05T12:18:21.575Z,20.43
2022-09-05T12:21:03.158Z,20.92
2022-09-05T12:24:11.645Z,21.01
2022-09-05T12:27:40.164Z,20.72
2022-09-05T12:29:49.001Z,20.89
2022-09-05T12:35:32.120Z,20.86
2022-09-05T12:36:04.363Z,20.78
2022-09-05T12:40:56.858Z,20.88
2022-09-05T12:41:40.656Z,20.42
2022-09-05T12:44:45.052Z,20.70
2022-09-05T12:47:16.656Z,21.13
2022-09-05T12:50:03.405Z,21.24
2022-09-05T12:52:48.315Z,21.12
2022-09-05T12:55:29.110Z,20.76
2022-09-05T13:02:18.645Z,20.71
2022-09-05T13:03:13.414Z,20.70
2022-09-05T13:04:16.941Z,20.24
2022-09-05T13:06:47.227Z,20.01
2022-09-05T13:09:30.875Z,20.55
2022-09-05T13:14:46.328Z,20.44
2022-09-05T13:15:21.908Z,19.92
2022-09-05T13:18:01.065Z,19.47
2022-09-05T13:20:37.319Z,18.95
2022-09-05T13:23:19.453Z,18.71
2022-09-05T13:25:58.314Z,19.07
2022-09-05T13:28:35.710Z,19.09
2022-09-05T13:37:53.800Z,18.79
2022-09-05T13:38:01.205Z,18.80
2022-09-05T13:38:11.970Z,18.88
2022-09-05T13:39:54.041Z,18.74
2022-09-05T13:42:28.012Z,18.71
2022-09-05T13:44:59.290Z,18.95
2022-09-05T13:48:21.731Z,18.81
2022-09-05T13:50:55.486Z,18.56
2022-09-05T13:53:36.980Z,18.60
2022-09-05T13:56:23.797Z,19.16
2022-09-05T13:58:56.535Z,19.27
2022-09-05T14:02:24.902Z,19.28
2022-09-05T14:05:20.751Z,19.26
2022-09-05T14:08:27.642Z,19.57
2022-09-05T14:11:24.354Z,19.32
2022-09-05T14:14:11.328Z,19.41
2022-09-05T14:16:53.490Z,19.96
2022-09-05T14:19:43.183Z,20.37
2022-09-05T14:22:41.065Z,20.69
2022-09-05T14:25:19.277Z,20.53
2022-09-05T14:27:50.644Z,19.83
2022-09-05T14:34:38.337Z,19.24
2022-09-05T14:37:45.870Z,20.81
2022-09-05T14:38:00.544Z,20.11
2022-09-05T14:40:40.497Z,20.98
2022-09-05T14:43:39.161Z,20.83
2022-09-05T14:46:28.749Z,21.62
2022-09-05T14:49:22.601Z,19.96
2022-09-05T14:51:55.458Z,19.52
2022-09-05T14:59:40.609Z,19.05
2022-09-05T15:02:42.866Z,18.75
2022-09-05T15:03:06.255Z,18.54
2022-09-05T15:05:43.836Z,18.51
2022-09-05T15:10:02.377Z,18.43
2022-09-05T15:12:18.265Z,18.56
2022-09-05T15:14:06.088Z,18.59
2022-09-05T15:16:43.872Z,18.61
2022-09-05T15:20:05.563Z,18.67
2022-09-05T15:22:37.570Z,19.87
2022-09-05T15:25:18.043Z,19.67
2022-09-05T15:27:48.287Z,19.45
2022-09-05T15:30:22.589Z,19.05
2022-09-05T15:33:13.896Z,18.71
2022-09-05T15:35:44.862Z,19.25
2022-09-05T15:38:33.665Z,18.90
2022-09-05T15:41:25.093Z,18.78
2022-09-05T15:44:00.134Z,18.56
2022-09-05T15:46:43.029Z,18.25
2022-09-05T15:49:14.423Z,18.20
2022-09-05T15:51:48.868Z,19.11
2022-09-05T15:54:37.666Z,19.52
2022-09-05T15:57:17.505Z,19.79
2022-09-05T15:59:49.846Z,19.20
2022-09-05T16:02:27.187Z,18.96
2022-09-05T16:10:36.698Z,18.92
2022-09-05T16:10:49.867Z,18.80
2022-09-05T16:11:31.646Z,18.90
2022-09-05T16:13:53.346Z,18.80
2022-09-05T16:23:20.988Z,18.61
2022-09-05T16:23:23.590Z,18.43
2022-09-05T16:23:24.702Z,18.49
2022-09-05T16:25:31.487Z,19.02
2022-09-05T16:28:05.019Z,20.22
2022-09-05T16:30:35.952Z,20.22
2022-09-05T16:33:09.851Z,19.82
2022-09-05T16:35:48.306Z,19.21
2022-09-05T16:38:22.873Z,18.73
2022-09-05T16:41:24.448Z,18.67
2022-09-05T16:43:58.457Z,18.64
2022-09-05T16:46:33.016Z,18.54
2022-09-05T16:49:11.953Z,18.22
2022-09-05T16:51:50.018Z,18.23
2022-09-05T16:54:27.687Z,18.25
2022-09-05T16:57:22.235Z,18.35
2022-09-05T16:59:53.178Z,18.33
2022-09-05T17:02:29.771Z,18.34
2022-09-05T17:05:20.338Z,18.24
2022-09-05T17:08:05.809Z,18.18
2022-09-05T17:10:43.084Z,18.12
2022-09-05T17:13:18.680Z,17.99
2022-09-05T17:15:52.785Z,17.92
2022-09-05T17:18:27.879Z,17.92
2022-09-05T17:21:03.977Z,17.95
2022-09-05T17:29:18.961Z,18.04
2022-09-05T17:29:37.961Z,18.05
2022-09-05T17:31:20.849Z,18.02
2022-09-05T17:32:36.971Z,18.01
2022-09-05T17:35:18.590Z,18.01
2022-09-05T17:38:11.788Z,18.02
2022-09-05T17:41:20.042Z,17.85
2022-09-05T17:43:58.775Z,17.94
2022-09-05T17:46:31.981Z,17.80
2022-09-05T17:49:18.648Z,17.77
2022-09-05T17:52:18.424Z,17.71
2022-09-05T17:54:50.213Z,17.67
2022-09-05T17:57:42.378Z,17.63
2022-09-05T18:00:45.760Z,17.66
2022-09-05T18:04:17.731Z,17.69
2022-09-05T18:07:00.600Z,17.52
2022-09-05T18:09:59.063Z,17.54
2022-09-05T18:13:14.254Z,17.52
2022-09-05T18:16:10.912Z,17.45
2022-09-05T18:19:28.375Z,17.56
2022-09-05T18:21:50.188Z,17.52
2022-09-05T18:24:33.370Z,17.56
2022-09-05T18:27:35.083Z,17.52
2022-09-05T18:30:11.435Z,17.53
2022-09-05T18:32:47.218Z,17.58
2022-09-05T18:35:37.662Z,17.55
2022-09-05T18:38:50.139Z,17.58
2022-09-05T18:41:21.691Z,17.60
2022-09-05T18:44:13.244Z,17.51
2022-09-05T18:46:48.373Z,17.51
2022-09-05T18:50:23.320Z,17.51
2022-09-05T18:52:23.592Z,17.51
2022-09-05T18:56:09.360Z,17.44
2022-09-05T18:57:58.982Z,17.43
2022-09-05T19:00:44.454Z,17.43
2022-09-05T19:03:24.993Z,17.40
2022-09-05T19:06:37.015Z,17.47
2022-09-05T19:09:07.705Z,17.37
2022-09-05T19:11:42.323Z,17.39
2022-09-05T19:15:19.005Z,17.40
2022-09-05T19:18:26.414Z,17.35
2022-09-05T19:21:11.798Z,17.30
2022-09-05T19:23:46.273Z,17.32
2022-09-05T19:26:15.868Z,17.30
2022-09-05T19:36:57.279Z,17.24
2022-09-05T19:36:59.600Z,17.21
2022-09-05T19:37:13.592Z,17.23
2022-09-05T19:37:47.935Z,17.07
2022-09-05T19:47:27.106Z,16.91
2022-09-05T19:47:37.188Z,16.83
2022-09-05T19:47:37.850Z,16.83
2022-09-05T19:49:07.068Z,16.78
2022-09-05T19:51:37.846Z,16.81
2022-09-05T19:54:08.954Z,16.69
2022-09-05T19:56:39.981Z,16.64
2022-09-05T19:59:19.364Z,16.57
2022-09-05T20:01:49.109Z,16.57
2022-09-05T20:04:19.249Z,16.56
2022-09-05T20:06:48.055Z,16.51
2022-09-05T20:09:19.592Z,16.49
2022-09-05T20:11:56.969Z,16.41
2022-09-05T20:14:30.796Z,16.41
2022-09-05T20:17:21.115Z,16.36
2022-09-05T20:19:51.941Z,16.24
2022-09-05T20:22:49.075Z,16.23
2022-09-05T20:25:36.153Z,16.26
2022-09-05T20:28:09.846Z,16.22
2022-09-05T20:30:44.817Z,16.25
2022-09-05T20:33:22.271Z,16.24
2022-09-05T20:43:12.219Z,16.22
2022-09-05T20:43:18.457Z,16.27
2022-09-05T20:43:27.683Z,16.19
2022-09-05T20:44:37.993Z,16.16
2022-09-05T20:54:04.286Z,16.16
2022-09-05T20:54:14.764Z,16.07
2022-09-05T20:54:20.950Z,16.07
2022-09-05T20:55:43.095Z,16.04
2022-09-05T20:58:15.595Z,16.00
2022-09-05T21:01:15.487Z,15.99
2022-09-05T21:07:36.027Z,15.85
2022-09-05T21:10:07.932Z,15.87
2022-09-05T21:12:46.137Z,15.82
2022-09-05T21:15:28.342Z,15.75
2022-09-05T21:18:17.870Z,15.76
2022-09-05T21:20:54.655Z,15.72
2022-09-05T21:23:29.678Z,15.72
2022-09-05T21:26:00.934Z,15.70
2022-09-05T21:28:36.322Z,15.70
2022-09-05T21:31:15.942Z,15.67
2022-09-05T21:33:46.302Z,15.65
2022-09-05T21:36:17.443Z,15.64
2022-09-05T21:38:46.411Z,15.62
2022-09-05T21:41:18.883Z,15.60
2022-09-05T21:47:44.676Z,15.61
2022-09-05T21:47:49.875Z,15.60
2022-09-05T21:49:37.121Z,15.61
2022-09-05T21:52:10.472Z,15.62
2022-09-05T21:59:16.952Z,15.59
2022-09-05T21:59:22.284Z,15.65
2022-09-05T22:00:24.077Z,15.68
2022-09-05T22:02:54.155Z,15.73
2022-09-05T22:05:25.485Z,15.74
2022-09-05T22:07:55.864Z,15.75
2022-09-05T22:10:33.858Z,15.74
2022-09-05T22:13:13.666Z,15.71
2022-09-05T22:15:48.809Z,15.62
2022-09-05T22:18:18.884Z,15.60
2022-09-05T22:21:31.619Z,15.54
2022-09-05T22:23:44.799Z,15.52
2022-09-05T22:26:14.661Z,15.54
2022-09-05T22:28:49.174Z,15.55
2022-09-05T22:31:27.891Z,15.60
2022-09-05T22:34:01.314Z,15.57
2022-09-05T22:36:30.010Z,15.58
2022-09-05T22:38:58.897Z,15.59
2022-09-05T22:41:30.054Z,15.57
2022-09-05T22:44:00.495Z,15.58
2022-09-05T22:46:29.374Z,15.56
2022-09-05T22:49:00.287Z,15.60
2022-09-05T22:51:29.229Z,15.62
2022-09-05T22:53:58.360Z,15.65
2022-09-05T22:56:35.911Z,15.69
2022-09-05T22:59:05.795Z,15.74
2022-09-05T23:01:36.080Z,15.82
2022-09-05T23:04:07.280Z,15.83
2022-09-05T23:06:35.764Z,15.82
2022-09-05T23:09:04.320Z,15.85
2022-09-05T23:11:33.784Z,15.81
2022-09-05T23:14:02.200Z,15.80
2022-09-05T23:16:33.981Z,15.73
2022-09-05T23:19:04.991Z,15.72
2022-09-05T23:21:36.662Z,15.75
2022-09-05T23:24:07.094Z,15.73
2022-09-05T23:26:36.302Z,15.75
2022-09-05T23:29:04.832Z,15.78
2022-09-05T23:31:33.612Z,15.76
2022-09-05T23:34:02.266Z,15.75
2022-09-05T23:36:31.667Z,15.76
2022-09-05T23:39:01.797Z,15.76
2022-09-05T23:41:31.059Z,15.73
2022-09-05T23:43:59.659Z,15.73
2022-09-05T23:46:28.626Z,15.77
2022-09-05T23:48:57.364Z,15.78
2022-09-05T23:51:27.196Z,15.78
2022-09-05T23:53:56.080Z,15.74
2022-09-05T23:56:26.343Z,15.79
2022-09-05T23:58:56.076Z,15.78
